Weather observations for the past three days for
Pratt Municipal
Metric (Imperial)
Date Time (cdt) Wind (kph) Vis. (km) Weather Sky Cond. Temperature (ºC) Relative Humidity Wind Chill (°C) Heat Index (°C) Pressure Precipitation (cm)
Air Dwpt 6 hour altimeter (cm) sea level (mb) 1 hr 3 hr 6 hr
Max. Min.
04 22:35 E 7 16.09 Fair CLR 21 12 57% 75.18 0.0
04 22:15 E 7 16.09 Fair CLR 21.5 11.3 52% 75.18 0.0
04 21:55 E 9 16.09 Fair CLR 22.1 10.2 47% 75.16 0.0
04 21:35 E 9 16.09 Fair CLR 23 9.5 42% 75.16 0.0
04 21:15 E 11 16.09 Fair CLR 22.6 9.5 43% 75.16 0.0
04 20:55 E 6 16.09 Fair CLR 23.5 9.5 41% 75.16 0.0
04 20:35 N 7 16.09 Fair CLR 22.5 10 45% 75.16 0.0
04 20:15 Calm 11.27 Fair CLR 25.1 9.3 37% 26 75.13 0.0
04 19:55 Calm 16.09 Partly Cloudy SCT120 23.9 10.1 42% 25 75.13 0.0
04 19:35 SE 11 16.09 Partly Cloudy SCT120 25.3 9.1 36% 26 75.11 0.0
04 19:15 SE 6 16.09 Partly Cloudy SCT110 25.9 8.8 34% 26 75.08 0.0
04 18:55 SE 13 16.09 Fair CLR 27 8 30.6 27 30% 26 75.08 0.0
04 18:35 S 13 16.09 Fair CLR 27.6 7.5 28% 27 75.08 0.0
04 18:15 S 17 3.22 Fair with Haze CLR 28.2 7.4 27% 27 75.11 0.0
04 17:55 S 15 16.09 Fair CLR 29 7.6 26% 28 75.13 0.0
04 17:35 S 13 16.09 Fair CLR 27.8 7.1 27% 27 75.13 0.0
04 17:15 SE 11 16.09 Fair CLR 28.5 6 24% 27 75.11 0.0
04 16:55 SE 11 16.09 Fair CLR 29.2 6 23% 28 75.11 0.0
04 16:35 SE 15 16.09 Fair CLR 29.9 6.1 22% 28 75.11 0.0
04 16:15 E 17 16.09 Fair CLR 30.5 6.1 21% 29 75.13 0.0
04 15:55 SE 17 16.09 Fair CLR 30.5 5.5 21% 29 75.16 0.0
04 15:35 E 13 16.09 Fair CLR 30.5 6.6 22% 29 75.18 0.0
04 15:15 E 13 16.09 Fair CLR 30.2 5.4 21% 28 75.21 0.0
04 14:55 E 13 16.09 Fair CLR 30.2 5.9 22% 28 75.23 0.0
04 14:35 SE 9 G 15 16.09 Fair CLR 29.5 5.1 21% 28 75.23 0.0
04 14:15 E 11 16.09 Fair CLR 29.8 3.1 18% 28 75.29 0.0
04 13:55 E 11 16.09 Fair CLR 29.7 3.3 18% 28 75.29 0.0
04 13:35 NE 7 16.09 Fair CLR 29.2 1.5 17% 28 75.29 0.0
04 13:15 E 7 11.27 Fair CLR 28.9 1.9 18% 27 75.31 0.0
04 12:55 S 6 16.09 Fair CLR 28.3 6 28.5 13.5 24% 27 75.34 0.0
04 12:35 Calm 16.09 Fair CLR 28.2 7.1 26% 27 75.36 0.0
04 12:15 Calm 16.09 Fair CLR 27.3 7.1 28% 27 75.36 0.0
04 11:55 Calm 16.09 Fair CLR 27 5.8 26% 26 75.36 0.0
04 11:35 Calm 16.09 Fair CLR 26.4 6.8 29% 26 75.34 0.0
04 11:15 Calm 16.09 Fair CLR 25.6 6.8 30% 26 75.34 0.0
04 10:55 W 6 16.09 Fair CLR 25 7 32% 25 75.34 0.0
04 10:35 SW 9 16.09 Fair CLR 23.7 7 34% 75.34 0.0
04 10:15 W 11 16.09 Fair CLR 23.6 7 34% 75.34 0.0
04 09:55 SW 13 16.09 Fair CLR 22.6 6.8 36% 75.36 0.0
04 09:35 SW 19 16.09 Fair CLR 22 6.7 37% 75.36 0.0
04 09:15 SW 15 16.09 Fair CLR 20.7 6.5 40% 75.36 0.0
04 08:55 SW 15 16.09 Fair CLR 20.2 6.6 41% 75.39 0.0
04 08:35 SW 15 16.09 Fair CLR 19.1 6.9 45% 75.36 0.0
04 08:15 SW 15 16.09 Fair CLR 17.7 6.5 48% 75.36 0.0
04 07:55 SW 15 16.09 Fair CLR 16.4 6.2 51% 75.36 0.0
04 07:35 SW 13 16.09 Fair CLR 14.9 6.1 56% 75.36 0.0
04 07:15 SW 9 16.09 Fair CLR 13.9 5.7 58% 75.36 0.0
04 06:55 SW 11 16.09 Fair CLR 13.6 5.5 19.5 12.7 58% 75.36 0.0
04 06:35 SW 13 16.09 Fair CLR 12.7 5.2 61% 75.36 0.0
04 06:20 SW 11 16.09 Fair CLR 14 5.3 56% 75.36 0.0
04 05:35 SW 13 16.09 Fair CLR 16 5.2 49% 75.39 0.0
04 05:15 SW 17 16.09 Fair CLR 16.2 5 48% 75.41 0.0
04 04:55 SW 17 16.09 Fair CLR 16.3 5 47% 75.41 0.0
04 04:15 SW 19 16.09 Fair CLR 17.2 4.7 44% 75.41 0.0
04 03:30 SW 17 16.09 Fair CLR 17 4.6 44% 75.44 0.0
04 03:15 S 17 16.09 Fair CLR 17 4.5 44% 75.46 0.0
04 02:55 S 19 16.09 Fair CLR 17.4 4.5 43% 75.46 0.0
04 02:35 SW 19 16.09 Fair CLR 18 4.2 40% 75.46 0.0
04 02:15 S 20 16.09 Fair CLR 18.6 4 38% 75.49 0.0
04 01:55 S 22 16.09 Fair CLR 18.7 3.9 38% 75.51 0.0
04 01:35 S 20 16.09 Fair CLR 18.6 3.7 37% 75.51 0.0
04 01:15 S 20 16.09 Fair CLR 19.1 3.6 36% 75.51 0.0
04 00:55 S 22 16.09 Fair CLR 19.6 3.4 27.4 19.6 34% 75.51 0.0
04 00:35 S 24 16.09 Fair CLR 20 3.2 33% 75.54 0.0
04 00:15 S 22 16.09 Fair CLR 20.1 3.1 33% 75.54 0.0
03 23:55 S 24 16.09 Fair CLR 20.5 3 32% 75.54 0.0
03 23:35 S 24 16.09 Fair CLR 21 2.6 30% 75.54 0.0
03 23:15 S 22 16.09 Fair CLR 20.5 2.5 30% 75.57 0.0
03 22:55 S 20 16.09 Fair CLR 21.1 2.1 29% 75.57 0.0
03 22:35 S 22 16.09 Fair CLR 21.5 2 28% 75.57 0.0
03 22:15 S 24 16.09 Fair CLR 21.9 1.8 27% 75.57 0.0
03 21:55 S 24 16.09 Fair CLR 22.1 1.8 26% 75.54 0.0
03 21:35 S 24 16.09 Fair CLR 22.3 1.6 26% 75.54 0.0
03 21:15 S 20 16.09 Fair CLR 22.5 1.6 25% 75.54 0.0
03 20:55 S 17 16.09 Fair CLR 21.7 2.1 28% 75.54 0.0
03 20:35 S 17 16.09 Fair CLR 22 2.1 27% 75.54 0.0
03 20:15 S 15 16.09 Fair CLR 22.3 2.5 27% 75.54 0.0
03 19:55 S 17 16.09 Fair CLR 23.4 2.7 26% 75.54 0.0
03 19:35 S 15 16.09 Fair CLR 25.1 1.6 22% 25 75.57 0.0
03 19:15 S 19 16.09 Fair CLR 26.4 0.1 18% 26 75.59 0.0
03 18:55 SW 28 G 35 16.09 Fair CLR 27.3 -0.4 30.3 27.3 16% 26 75.62 0.0
03 18:35 SW 30 16.09 Fair CLR 28.1 -0.9 15% 27 75.62 0.0
03 18:15 SW 37 G 43 16.09 Fair and Breezy CLR 28.5 -0.7 15% 27 75.64 0.0
03 17:55 SW 39 G 48 16.09 Fair and Breezy CLR 28.8 -1 14% 27 75.64 0.0
03 17:35 SW 35 16.09 Fair and Breezy CLR 29.1 -1.4 14% 27 75.64 0.0
03 17:15 SW 33 G 46 16.09 Fair and Breezy CLR 28.6 -1.8 14% 27 75.67 0.0
03 16:55 SW 35 G 48 16.09 Fair and Breezy CLR 29.1 -2.9 12% 27 75.69 0.0
03 16:35 SW 37 G 48 16.09 Fair and Breezy CLR 29.8 -1 13% 28 75.69 0.0
03 16:15 SW 39 G 46 16.09 Fair and Breezy CLR 29.7 -2.1 12% 28 75.74 0.0
03 15:55 SW 37 G 59 16.09 Fair and Breezy CLR 29.7 -3.6 11% 28 75.77 0.0
03 15:35 SW 37 G 46 16.09 Fair and Breezy CLR 29.7 -2.8 12% 28 75.82 0.0
03 15:15 SW 30 G 48 16.09 Fair CLR 29.6 -2.3 12% 28 75.84 0.0
03 14:55 SW 35 G 46 16.09 Fair and Breezy CLR 29.4 -2.4 12% 28 75.84 0.0
03 14:35 SW 37 G 48 16.09 Fair and Breezy CLR 29.6 -1.4 13% 28 75.87 0.0
03 14:15 SW 28 G 44 16.09 Fair CLR 29.4 -1.4 13% 28 75.87 0.0
03 13:35 SW 30 G 46 16.09 Fair CLR 28.7 -0.6 15% 27 75.95 0.0
03 13:15 SW 33 G 44 16.09 Fair and Breezy CLR 28.4 -1.1 15% 27 76 0.0
03 12:55 SW 39 G 44 16.09 Fair and Breezy CLR 27.9 -1.1 27.9 9 15% 27 76.02 0.0
03 12:35 SW 37 G 48 16.09 Fair and Breezy CLR 27.6 -1.7 15% 26 76.02 0.0
03 12:15 SW 35 G 48 16.09 Fair and Breezy CLR 27.3 -2.5 14% 26 76.07 0.0
03 11:55 SW 35 G 48 16.09 Fair and Breezy CLR 27.1 -2.5 14% 26 76.07 0.0
03 11:35 SW 35 G 48 16.09 Fair and Breezy CLR 27.2 -2.8 14% 26 76.1 0.0
03 11:15 SW 39 G 46 16.09 Fair and Breezy CLR 27 -2.9 14% 26 76.1 0.0
03 10:55 SW 35 16.09 Fair and Breezy CLR 26.8 -0.7 16% 26 76.1 0.0
03 10:35 W 28 16.09 Fair CLR 25.7 2.3 22% 25 76.12 0.0
03 10:15 W 26 G 35 16.09 Fair CLR 24.2 3.2 26% 25 76.15 0.0
03 09:55 W 24 G 31 16.09 Fair CLR 22.4 3.8 30% 76.15 0.0
03 09:35 W 22 16.09 Fair CLR 20.8 4.3 34% 76.17 0.0
03 09:15 SW 20 16.09 Fair CLR 18.9 4.2 38% 76.17 0.0
03 08:30 SW 19 16.09 Fair CLR 15.6 5.1 50% 76.2 0.0
03 08:15 SW 15 16.09 Fair CLR 13.7 5.7 59% 76.2 0.0
03 06:50 S 13 16.09 Fair CLR 9.2 4.5 11.8 8.8 73% 7 76.17 0.0
03 06:35 SW 15 16.09 Fair CLR 9.4 4.5 72% 7 76.17 0.0
03 06:15 SW 13 16.09 Fair CLR 9.8 4.5 70% 8 76.17 0.0
03 05:55 S 15 16.09 Fair CLR 10.2 4.5 68% 76.17 0.0
03 05:35 SW 15 16.09 Fair CLR 10.4 4.5 67% 76.2 0.0
03 05:20 SW 17 16.09 Fair CLR 10.6 4.3 65% 76.2 0.0
03 04:15 SW 20 16.09 Fair CLR 11.5 4.2 61% 76.25 0.0
03 03:55 SW 19 16.09 Fair CLR 11.6 4.2 61% 76.25 0.0
03 03:10 SW 19 G 26 16.09 Fair CLR 11.7 4.4 61% 76.28 0.0
03 02:55 SW 19 16.09 Fair CLR 11.7 4.4 61% 76.28 0.0
03 02:35 S 19 16.09 Fair CLR 11.2 4 61% 76.3 0.0
03 02:15 S 20 16.09 Fair CLR 11.2 4 61% 76.3 0.0
03 01:55 S 15 16.09 Fair CLR 9.1 3.5 68% 7 76.33 0.0
03 01:35 S 15 16.09 Fair CLR 9.2 3.5 68% 7 76.33 0.0
03 01:15 S 15 16.09 Fair CLR 8.8 3.5 70% 7 76.35 0.0
03 00:55 S 15 16.09 Fair CLR 9.7 3.5 21.6 9.2 66% 8 76.35 0.0
03 00:35 S 11 16.09 Fair CLR 9.2 3.5 68% 8 76.38 0.0
03 00:15 S 13 16.09 Fair CLR 10.7 3.5 61% 76.38 0.0
02 23:55 S 9 16.09 Fair CLR 13.9 2.6 47% 76.38 0.0
02 23:35 S 9 16.09 Fair CLR 14.2 2.5 45% 76.38 0.0
02 23:15 S 9 16.09 Fair CLR 14.5 2.2 44% 76.38 0.0
02 22:55 S 9 16.09 Fair CLR 15 2.1 42% 76.38 0.0
02 22:35 S 9 16.09 Fair CLR 15.3 2 41% 76.38 0.0
02 22:15 SE 7 16.09 Fair CLR 15.4 2 41% 76.38 0.0
02 21:55 SE 9 16.09 Fair CLR 15.5 2 40% 76.38 0.0
02 21:35 SE 9 16.09 Fair CLR 16.5 1.7 37% 76.38 0.0
02 21:15 SE 9 16.09 Fair CLR 16.5 1.8 37% 76.35 0.0
02 20:55 SE 9 16.09 Fair CLR 17.4 1.7 35% 76.35 0.0
02 20:35 SE 7 16.09 Fair CLR 18.2 1.1 32% 76.35 0.0
02 20:15 SE 7 16.09 Fair CLR 19 1.6 31% 76.35 0.0
02 19:55 SE 6 16.09 Fair CLR 19.8 1.4 29% 76.35 0.0
02 19:35 SE 9 16.09 Fair CLR 20.9 0.2 25% 76.35 0.0
02 19:15 Calm 16.09 Fair CLR 21.5 -1.8 21% 76.38 0.0
02 18:35 NE 6 16.09 Fair CLR 21.6 -1.5 21% 76.38 0.0
02 18:15 NE 6 16.09 Fair CLR 21.5 -1.1 22% 76.4 0.0
02 17:55 Calm 16.09 Fair CLR 21.6 -0.5 23% 76.43 0.0
02 17:35 Calm 16.09 Fair CLR 21.4 -0.9 23% 76.43 0.0
02 17:15 Calm 16.09 Fair CLR 21.2 -1.5 22% 76.43 0.0
02 16:55 NE 6 16.09 Fair CLR 21.6 -0.4 23% 76.45 0.0
02 16:35 NE 6 16.09 Fair CLR 21.2 -0.8 23% 76.48 0.0
02 16:15 E 6 16.09 Fair CLR 20.4 -0.9 24% 76.5 0.0
02 15:55 Calm 16.09 Fair CLR 20 -0.9 25% 76.53 0.0
02 15:35 N 6 16.09 Fair CLR 20.2 -0.4 25% 76.56 0.0
02 15:15 NE 9 16.09 Fair CLR 19.8 -0.4 26% 76.56 0.0
02 14:55 E 6 16.09 Fair CLR 20.1 0.5 27% 76.58 0.0
02 14:35 Calm 16.09 Fair CLR 19.4 0.4 28% 76.61 0.0
02 14:15 Calm 16.09 Fair CLR 19.1 0.3 28% 76.61 0.0
02 13:55 Calm 16.09 Fair CLR 18.5 0 29% 76.66 0.0
02 13:35 Calm 16.09 Fair CLR 18.1 0.7 31% 76.66 0.0
02 13:15 Calm 16.09 Fair CLR 17.9 0.8 32% 76.68 0.0
02 12:55 NE 9 16.09 Fair CLR 17.1 0.1 17.4 6.6 32% 76.68 0.0
02 12:35 E 6 16.09 Fair CLR 17.1 1.4 35% 76.71 0.0
02 12:15 SE 7 16.09 Fair CLR 16.4 0.9 35% 76.71 0.0
02 11:55 E 9 16.09 Fair CLR 16.4 1.1 36% 76.73 0.0
02 11:35 Calm 16.09 Fair CLR 15.6 1 37% 76.73 0.0
02 11:15 E 9 16.09 Fair CLR 15.2 0.9 38% 76.73 0.0
02 10:55 SE 7 16.09 Fair CLR 14.3 0.4 39% 76.73 0.0
02 10:35 E 9 16.09 Fair CLR 14 0.4 40% 76.73 0.0
02 10:15 E 9 16.09 Fair CLR 13.4 0.1 40% 76.73 0.0
02 09:55 E 9 16.09 Fair CLR 12.8 0.1 42% 76.76 0.0
02 09:35 E 11 16.09 Fair CLR 12.1 -0.5 42% 76.73 0.0
02 09:15 E 15 16.09 Fair CLR 11.5 -1 42% 76.73 0.0
02 08:55 E 15 16.09 Fair CLR 10.8 0 48% 76.73 0.0
02 08:35 E 11 16.09 Fair CLR 9.7 1.5 57% 8 76.71 0.0
02 08:15 E 13 16.09 Fair CLR 8.7 3.1 68% 7 76.71 0.0
02 07:55 NE 11 16.09 Fair CLR 7.7 4.5 80% 6 76.68 0.0
02 07:35 NE 6 16.09 Fair CLR 7.1 5 87% 76.66 0.0
02 07:15 Calm 16.09 Fair CLR 7 5 87% 76.63 0.0
02 06:15 NE 6 16.09 Partly Cloudy SCT120 7.7 5.5 86% 76.58 0.0
02 05:55 NE 6 16.09 Partly Cloudy SCT110 8.2 5.5 83% 76.58 0.0
02 04:35 Calm 16.09 Mostly Cloudy BKN100 8.7 5.8 82% 76.56 0.0
02 04:20 NE 6 16.09 Mostly Cloudy SCT080 BKN100 8.5 5.6 82% 76.56 0.0
02 03:55 Calm 16.09 Mostly Cloudy SCT090 BKN120 8.9 5 77% 76.56 0.0
02 03:15 Calm 16.09 Partly Cloudy SCT110 7.2 4.6 84% 76.53 0.0
02 02:55 Calm 16.09 Partly Cloudy SCT110 7.1 4.9 86% 76.53 0.0
02 02:35 Calm 16.09 Partly Cloudy SCT110 10 4.6 69% 76.5 0.0
02 02:15 Calm 16.09 Fair CLR 10 4.8 70% 76.53 0.0
02 01:55 Calm 16.09 Partly Cloudy SCT075 SCT090 SCT110 10 5 71% 76.53 0.0
02 01:35 Calm 16.09 Partly Cloudy SCT080 SCT110 10.2 5 70% 76.56 0.0
02 01:15 Calm 16.09 Mostly Cloudy BKN080 BKN100 BKN120 10 5.1 72% 76.56 0.0
02 00:55 Calm 16.09 Mostly Cloudy SCT080 BKN110 9.6 5.3 15.7 9.6 75% 76.56 0.0
02 00:35 Calm 16.09 Thunderstorm Light Rain in Vicinity SCT080 BKN100 BKN120 10.4 5.2 70% 76.56 0.0
02 00:15 N 7 16.09 Overcast BKN080 OVC110 11.2 4.3 63% 76.56 0.0
01 23:55 Calm 16.09 Mostly Cloudy BKN100 BKN120 10.8 4.3 64% 76.53 0.0
01 23:35 Calm 16.09 Partly Cloudy SCT090 11.1 3.5 60% 76.5 0.0
01 23:15 Calm 16.09 Thunderstorm CLR 10.7 3.6 62% 76.5 0.0
01 22:55 Calm 16.09 Fair CLR 11.1 3.7 61% 76.5 0.0
Date Time (cdt) Wind (kph) Vis. (km) Weather Sky Cond. Air Dwpt Max. Min. Relative Humidity Wind Chill (°C) Heat Index (°C) altimeter (cm) sea level (mb) 1 hr 3 hr 6 hr
6 hour
Temperature (ºC) Pressure Precipitation (cm)